sensor_id;sensor_type;location;lat;lon;timestamp;P1;durP1;ratioP1;P2;durP2;ratioP2
79480;SDS011;68944;48.262;14.208;2024-03-06T00:00:25;29.20;;;12.80;;
79480;SDS011;68944;48.262;14.208;2024-03-06T00:02:51;29.17;;;12.38;;
79480;SDS011;68944;48.262;14.208;2024-03-06T00:05:16;28.35;;;11.95;;
79480;SDS011;68944;48.262;14.208;2024-03-06T00:07:42;30.27;;;13.77;;
79480;SDS011;68944;48.262;14.208;2024-03-06T00:10:08;27.02;;;11.40;;
79480;SDS011;68944;48.262;14.208;2024-03-06T00:12:34;29.38;;;13.30;;
79480;SDS011;68944;48.262;14.208;2024-03-06T00:14:59;26.55;;;13.07;;
79480;SDS011;68944;48.262;14.208;2024-03-06T00:17:25;26.73;;;11.80;;
79480;SDS011;68944;48.262;14.208;2024-03-06T00:19:52;29.95;;;13.02;;
79480;SDS011;68944;48.262;14.208;2024-03-06T00:22:18;29.80;;;13.18;;
79480;SDS011;68944;48.262;14.208;2024-03-06T00:24:44;30.52;;;13.30;;
79480;SDS011;68944;48.262;14.208;2024-03-06T00:27:10;28.77;;;13.45;;
79480;SDS011;68944;48.262;14.208;2024-03-06T00:29:35;32.78;;;13.80;;
79480;SDS011;68944;48.262;14.208;2024-03-06T00:32:03;25.42;;;12.57;;
79480;SDS011;68944;48.262;14.208;2024-03-06T00:34:29;24.80;;;11.40;;
79480;SDS011;68944;48.262;14.208;2024-03-06T00:36:54;28.45;;;13.02;;
79480;SDS011;68944;48.262;14.208;2024-03-06T00:39:20;30.63;;;14.00;;
79480;SDS011;68944;48.262;14.208;2024-03-06T00:41:45;27.90;;;12.65;;
79480;SDS011;68944;48.262;14.208;2024-03-06T00:44:11;31.23;;;13.02;;
79480;SDS011;68944;48.262;14.208;2024-03-06T00:46:36;29.80;;;11.52;;
79480;SDS011;68944;48.262;14.208;2024-03-06T00:49:03;29.13;;;12.55;;
79480;SDS011;68944;48.262;14.208;2024-03-06T00:51:29;26.80;;;10.95;;
79480;SDS011;68944;48.262;14.208;2024-03-06T00:53:55;29.88;;;12.50;;
79480;SDS011;68944;48.262;14.208;2024-03-06T00:56:22;26.08;;;11.68;;
79480;SDS011;68944;48.262;14.208;2024-03-06T00:58:47;25.67;;;12.18;;
79480;SDS011;68944;48.262;14.208;2024-03-06T01:01:14;24.85;;;10.75;;
79480;SDS011;68944;48.262;14.208;2024-03-06T01:03:40;23.27;;;10.25;;
79480;SDS011;68944;48.262;14.208;2024-03-06T01:06:06;28.10;;;11.82;;
79480;SDS011;68944;48.262;14.208;2024-03-06T01:08:32;25.65;;;11.90;;
79480;SDS011;68944;48.262;14.208;2024-03-06T01:10:57;23.63;;;10.32;;
79480;SDS011;68944;48.262;14.208;2024-03-06T01:13:23;22.10;;;10.77;;
79480;SDS011;68944;48.262;14.208;2024-03-06T01:15:49;22.73;;;10.32;;
79480;SDS011;68944;48.262;14.208;2024-03-06T01:18:14;28.63;;;11.90;;
79480;SDS011;68944;48.262;14.208;2024-03-06T01:20:40;23.60;;;10.13;;
79480;SDS011;68944;48.262;14.208;2024-03-06T01:23:05;25.75;;;10.85;;
79480;SDS011;68944;48.262;14.208;2024-03-06T01:25:31;26.95;;;10.23;;
79480;SDS011;68944;48.262;14.208;2024-03-06T01:27:58;23.60;;;10.70;;
79480;SDS011;68944;48.262;14.208;2024-03-06T01:30:23;30.73;;;13.00;;
79480;SDS011;68944;48.262;14.208;2024-03-06T01:32:49;23.33;;;10.68;;
79480;SDS011;68944;48.262;14.208;2024-03-06T01:35:14;29.35;;;12.07;;
79480;SDS011;68944;48.262;14.208;2024-03-06T01:37:40;28.80;;;12.65;;
79480;SDS011;68944;48.262;14.208;2024-03-06T01:40:05;26.55;;;10.57;;
79480;SDS011;68944;48.262;14.208;2024-03-06T01:42:32;21.92;;;10.90;;
79480;SDS011;68944;48.262;14.208;2024-03-06T01:44:58;25.05;;;10.32;;
79480;SDS011;68944;48.262;14.208;2024-03-06T01:47:24;20.48;;;9.27;;
79480;SDS011;68944;48.262;14.208;2024-03-06T01:49:49;20.42;;;8.70;;
79480;SDS011;68944;48.262;14.208;2024-03-06T01:52:15;22.88;;;9.70;;
79480;SDS011;68944;48.262;14.208;2024-03-06T01:54:44;25.10;;;10.43;;
79480;SDS011;68944;48.262;14.208;2024-03-06T01:57:10;24.98;;;9.43;;
79480;SDS011;68944;48.262;14.208;2024-03-06T01:59:39;18.58;;;8.48;;
79480;SDS011;68944;48.262;14.208;2024-03-06T02:02:07;18.80;;;8.43;;
79480;SDS011;68944;48.262;14.208;2024-03-06T02:04:36;20.35;;;8.50;;
79480;SDS011;68944;48.262;14.208;2024-03-06T02:07:03;18.95;;;8.43;;
79480;SDS011;68944;48.262;14.208;2024-03-06T02:09:32;19.17;;;8.70;;
79480;SDS011;68944;48.262;14.208;2024-03-06T02:11:57;30.83;;;13.45;;
79480;SDS011;68944;48.262;14.208;2024-03-06T02:14:23;28.35;;;12.70;;
79480;SDS011;68944;48.262;14.208;2024-03-06T02:16:48;26.10;;;12.25;;
79480;SDS011;68944;48.262;14.208;2024-03-06T02:19:14;22.83;;;8.77;;
79480;SDS011;68944;48.262;14.208;2024-03-06T02:21:40;19.73;;;8.60;;
79480;SDS011;68944;48.262;14.208;2024-03-06T02:24:06;18.63;;;8.82;;
79480;SDS011;68944;48.262;14.208;2024-03-06T02:26:33;18.35;;;7.80;;
79480;SDS011;68944;48.262;14.208;2024-03-06T02:28:59;18.52;;;8.15;;
79480;SDS011;68944;48.262;14.208;2024-03-06T02:31:25;21.92;;;10.00;;
79480;SDS011;68944;48.262;14.208;2024-03-06T02:33:57;24.17;;;10.35;;
79480;SDS011;68944;48.262;14.208;2024-03-06T02:36:24;22.30;;;9.77;;
79480;SDS011;68944;48.262;14.208;2024-03-06T02:38:49;24.33;;;8.85;;
79480;SDS011;68944;48.262;14.208;2024-03-06T02:41:15;22.75;;;9.43;;
79480;SDS011;68944;48.262;14.208;2024-03-06T02:43:41;20.92;;;8.68;;
79480;SDS011;68944;48.262;14.208;2024-03-06T02:46:07;23.08;;;9.90;;
79480;SDS011;68944;48.262;14.208;2024-03-06T02:48:32;22.98;;;9.68;;
79480;SDS011;68944;48.262;14.208;2024-03-06T02:50:58;23.38;;;9.85;;
79480;SDS011;68944;48.262;14.208;2024-03-06T02:53:26;24.83;;;9.02;;
79480;SDS011;68944;48.262;14.208;2024-03-06T02:55:52;21.00;;;9.45;;
79480;SDS011;68944;48.262;14.208;2024-03-06T02:58:18;21.20;;;9.68;;
79480;SDS011;68944;48.262;14.208;2024-03-06T03:00:44;20.45;;;8.90;;
79480;SDS011;68944;48.262;14.208;2024-03-06T03:03:09;25.00;;;10.25;;
79480;SDS011;68944;48.262;14.208;2024-03-06T03:08:04;20.42;;;9.25;;
79480;SDS011;68944;48.262;14.208;2024-03-06T03:10:31;18.58;;;8.48;;
79480;SDS011;68944;48.262;14.208;2024-03-06T03:12:56;17.33;;;7.63;;
79480;SDS011;68944;48.262;14.208;2024-03-06T03:15:22;20.40;;;8.05;;
79480;SDS011;68944;48.262;14.208;2024-03-06T03:17:47;17.83;;;7.80;;
79480;SDS011;68944;48.262;14.208;2024-03-06T03:20:14;21.92;;;7.88;;
79480;SDS011;68944;48.262;14.208;2024-03-06T03:22:42;20.20;;;8.13;;
79480;SDS011;68944;48.262;14.208;2024-03-06T03:25:11;25.10;;;9.18;;
79480;SDS011;68944;48.262;14.208;2024-03-06T03:27:38;21.23;;;9.30;;
79480;SDS011;68944;48.262;14.208;2024-03-06T03:30:08;21.35;;;9.18;;
79480;SDS011;68944;48.262;14.208;2024-03-06T03:32:34;21.13;;;9.98;;
79480;SDS011;68944;48.262;14.208;2024-03-06T03:35:00;20.08;;;8.23;;
79480;SDS011;68944;48.262;14.208;2024-03-06T03:37:26;19.63;;;7.97;;
79480;SDS011;68944;48.262;14.208;2024-03-06T03:39:52;21.23;;;8.57;;
79480;SDS011;68944;48.262;14.208;2024-03-06T03:42:17;18.15;;;8.63;;
79480;SDS011;68944;48.262;14.208;2024-03-06T03:44:43;24.02;;;9.70;;
79480;SDS011;68944;48.262;14.208;2024-03-06T03:47:08;29.95;;;12.23;;
79480;SDS011;68944;48.262;14.208;2024-03-06T03:49:34;17.95;;;8.30;;
79480;SDS011;68944;48.262;14.208;2024-03-06T03:52:00;18.65;;;8.05;;
79480;SDS011;68944;48.262;14.208;2024-03-06T03:54:25;16.65;;;7.47;;
79480;SDS011;68944;48.262;14.208;2024-03-06T03:56:51;17.52;;;7.60;;
79480;SDS011;68944;48.262;14.208;2024-03-06T03:59:16;14.52;;;7.13;;
79480;SDS011;68944;48.262;14.208;2024-03-06T04:01:44;15.95;;;7.15;;
79480;SDS011;68944;48.262;14.208;2024-03-06T04:04:10;18.55;;;8.77;;
79480;SDS011;68944;48.262;14.208;2024-03-06T04:06:36;39.78;;;19.27;;
79480;SDS011;68944;48.262;14.208;2024-03-06T04:09:01;35.17;;;14.88;;
79480;SDS011;68944;48.262;14.208;2024-03-06T04:11:28;24.25;;;9.90;;
79480;SDS011;68944;48.262;14.208;2024-03-06T04:13:54;17.27;;;7.03;;
79480;SDS011;68944;48.262;14.208;2024-03-06T04:16:20;18.40;;;7.40;;
79480;SDS011;68944;48.262;14.208;2024-03-06T04:18:45;19.50;;;8.48;;
79480;SDS011;68944;48.262;14.208;2024-03-06T04:21:11;15.65;;;6.63;;
79480;SDS011;68944;48.262;14.208;2024-03-06T04:23:37;14.32;;;6.72;;
79480;SDS011;68944;48.262;14.208;2024-03-06T04:26:03;19.20;;;7.95;;
79480;SDS011;68944;48.262;14.208;2024-03-06T04:28:29;17.08;;;6.88;;
79480;SDS011;68944;48.262;14.208;2024-03-06T04:30:55;16.92;;;7.25;;
79480;SDS011;68944;48.262;14.208;2024-03-06T04:33:21;18.27;;;8.27;;
79480;SDS011;68944;48.262;14.208;2024-03-06T04:35:46;16.38;;;7.32;;
79480;SDS011;68944;48.262;14.208;2024-03-06T04:38:12;16.60;;;6.65;;
79480;SDS011;68944;48.262;14.208;2024-03-06T04:40:38;17.05;;;6.10;;
79480;SDS011;68944;48.262;14.208;2024-03-06T04:43:04;19.40;;;8.57;;
79480;SDS011;68944;48.262;14.208;2024-03-06T04:45:30;20.70;;;9.75;;
79480;SDS011;68944;48.262;14.208;2024-03-06T04:47:55;21.58;;;10.73;;
79480;SDS011;68944;48.262;14.208;2024-03-06T04:50:21;17.05;;;7.25;;
79480;SDS011;68944;48.262;14.208;2024-03-06T04:52:46;17.20;;;7.10;;
79480;SDS011;68944;48.262;14.208;2024-03-06T04:55:12;15.52;;;6.43;;
79480;SDS011;68944;48.262;14.208;2024-03-06T04:57:42;18.08;;;7.93;;
79480;SDS011;68944;48.262;14.208;2024-03-06T05:00:09;16.80;;;7.22;;
79480;SDS011;68944;48.262;14.208;2024-03-06T05:02:35;15.35;;;6.40;;
79480;SDS011;68944;48.262;14.208;2024-03-06T05:05:02;17.25;;;7.13;;
79480;SDS011;68944;48.262;14.208;2024-03-06T05:07:29;15.15;;;7.05;;
79480;SDS011;68944;48.262;14.208;2024-03-06T05:09:56;16.77;;;7.15;;
79480;SDS011;68944;48.262;14.208;2024-03-06T05:12:22;18.50;;;6.53;;
79480;SDS011;68944;48.262;14.208;2024-03-06T05:14:48;16.02;;;7.15;;
79480;SDS011;68944;48.262;14.208;2024-03-06T05:17:14;16.67;;;7.10;;
79480;SDS011;68944;48.262;14.208;2024-03-06T05:19:41;16.05;;;6.70;;
79480;SDS011;68944;48.262;14.208;2024-03-06T05:22:07;25.92;;;7.10;;
79480;SDS011;68944;48.262;14.208;2024-03-06T05:24:32;18.35;;;7.15;;
79480;SDS011;68944;48.262;14.208;2024-03-06T05:26:59;14.38;;;6.45;;
79480;SDS011;68944;48.262;14.208;2024-03-06T05:29:24;18.50;;;8.25;;
79480;SDS011;68944;48.262;14.208;2024-03-06T05:31:50;16.92;;;7.25;;
79480;SDS011;68944;48.262;14.208;2024-03-06T05:34:15;18.08;;;8.25;;
79480;SDS011;68944;48.262;14.208;2024-03-06T05:36:41;16.58;;;7.70;;
79480;SDS011;68944;48.262;14.208;2024-03-06T05:39:06;16.45;;;7.30;;
79480;SDS011;68944;48.262;14.208;2024-03-06T05:41:35;17.67;;;7.07;;
79480;SDS011;68944;48.262;14.208;2024-03-06T05:44:01;15.13;;;6.35;;
79480;SDS011;68944;48.262;14.208;2024-03-06T05:46:26;15.75;;;7.00;;
79480;SDS011;68944;48.262;14.208;2024-03-06T05:48:52;15.35;;;6.53;;
79480;SDS011;68944;48.262;14.208;2024-03-06T05:51:18;18.25;;;7.40;;
79480;SDS011;68944;48.262;14.208;2024-03-06T05:53:43;16.77;;;6.68;;
79480;SDS011;68944;48.262;14.208;2024-03-06T05:56:09;17.05;;;7.80;;
79480;SDS011;68944;48.262;14.208;2024-03-06T05:58:35;16.60;;;7.05;;
79480;SDS011;68944;48.262;14.208;2024-03-06T06:01:01;17.35;;;7.18;;
79480;SDS011;68944;48.262;14.208;2024-03-06T06:03:28;17.20;;;7.35;;
79480;SDS011;68944;48.262;14.208;2024-03-06T06:05:56;16.45;;;7.72;;
79480;SDS011;68944;48.262;14.208;2024-03-06T06:08:27;14.90;;;6.85;;
79480;SDS011;68944;48.262;14.208;2024-03-06T06:10:53;19.40;;;7.13;;
79480;SDS011;68944;48.262;14.208;2024-03-06T06:13:20;18.42;;;8.00;;
79480;SDS011;68944;48.262;14.208;2024-03-06T06:15:46;15.80;;;7.32;;
79480;SDS011;68944;48.262;14.208;2024-03-06T06:18:12;16.23;;;7.15;;
79480;SDS011;68944;48.262;14.208;2024-03-06T06:20:37;17.77;;;7.93;;
79480;SDS011;68944;48.262;14.208;2024-03-06T06:23:04;21.20;;;8.43;;
79480;SDS011;68944;48.262;14.208;2024-03-06T06:25:29;19.67;;;7.93;;
79480;SDS011;68944;48.262;14.208;2024-03-06T06:27:55;15.43;;;6.78;;
79480;SDS011;68944;48.262;14.208;2024-03-06T06:30:20;18.27;;;6.45;;
79480;SDS011;68944;48.262;14.208;2024-03-06T06:32:46;14.82;;;7.07;;
79480;SDS011;68944;48.262;14.208;2024-03-06T06:35:12;13.20;;;6.78;;
79480;SDS011;68944;48.262;14.208;2024-03-06T06:37:40;14.90;;;6.65;;
79480;SDS011;68944;48.262;14.208;2024-03-06T06:40:06;14.32;;;6.00;;
79480;SDS011;68944;48.262;14.208;2024-03-06T06:42:33;17.02;;;6.90;;
79480;SDS011;68944;48.262;14.208;2024-03-06T06:44:59;16.85;;;7.00;;
79480;SDS011;68944;48.262;14.208;2024-03-06T06:47:26;16.65;;;7.47;;
79480;SDS011;68944;48.262;14.208;2024-03-06T06:49:58;18.52;;;7.82;;
79480;SDS011;68944;48.262;14.208;2024-03-06T06:52:24;15.45;;;7.03;;
79480;SDS011;68944;48.262;14.208;2024-03-06T06:54:52;14.63;;;6.53;;
79480;SDS011;68944;48.262;14.208;2024-03-06T06:57:18;16.67;;;6.90;;
79480;SDS011;68944;48.262;14.208;2024-03-06T06:59:45;16.35;;;6.85;;
79480;SDS011;68944;48.262;14.208;2024-03-06T07:02:10;14.32;;;6.70;;
79480;SDS011;68944;48.262;14.208;2024-03-06T07:04:36;14.90;;;6.32;;
79480;SDS011;68944;48.262;14.208;2024-03-06T07:07:01;14.70;;;6.35;;
79480;SDS011;68944;48.262;14.208;2024-03-06T07:09:27;16.50;;;7.05;;
79480;SDS011;68944;48.262;14.208;2024-03-06T07:11:54;17.65;;;8.10;;
79480;SDS011;68944;48.262;14.208;2024-03-06T07:14:27;15.25;;;7.40;;
79480;SDS011;68944;48.262;14.208;2024-03-06T07:16:53;16.15;;;7.72;;
79480;SDS011;68944;48.262;14.208;2024-03-06T07:19:19;16.75;;;7.28;;
79480;SDS011;68944;48.262;14.208;2024-03-06T07:21:45;14.63;;;6.68;;
79480;SDS011;68944;48.262;14.208;2024-03-06T07:24:10;17.40;;;8.02;;
79480;SDS011;68944;48.262;14.208;2024-03-06T07:26:36;21.15;;;7.80;;
79480;SDS011;68944;48.262;14.208;2024-03-06T07:29:01;15.48;;;7.72;;
79480;SDS011;68944;48.262;14.208;2024-03-06T07:31:27;17.08;;;7.85;;
79480;SDS011;68944;48.262;14.208;2024-03-06T07:33:53;20.55;;;8.02;;
79480;SDS011;68944;48.262;14.208;2024-03-06T07:36:19;15.55;;;7.30;;
79480;SDS011;68944;48.262;14.208;2024-03-06T07:38:44;19.05;;;7.53;;
79480;SDS011;68944;48.262;14.208;2024-03-06T07:41:10;18.33;;;7.97;;
79480;SDS011;68944;48.262;14.208;2024-03-06T07:43:37;17.08;;;7.53;;
79480;SDS011;68944;48.262;14.208;2024-03-06T07:46:03;17.95;;;8.68;;
79480;SDS011;68944;48.262;14.208;2024-03-06T07:48:36;16.25;;;7.63;;
79480;SDS011;68944;48.262;14.208;2024-03-06T07:51:02;18.70;;;8.48;;
79480;SDS011;68944;48.262;14.208;2024-03-06T07:53:28;21.98;;;9.45;;
79480;SDS011;68944;48.262;14.208;2024-03-06T07:55:53;22.98;;;9.82;;
79480;SDS011;68944;48.262;14.208;2024-03-06T07:58:19;21.67;;;10.13;;
79480;SDS011;68944;48.262;14.208;2024-03-06T08:00:46;20.92;;;10.20;;
79480;SDS011;68944;48.262;14.208;2024-03-06T08:03:12;19.67;;;9.73;;
79480;SDS011;68944;48.262;14.208;2024-03-06T08:05:38;20.50;;;9.50;;
79480;SDS011;68944;48.262;14.208;2024-03-06T08:08:04;21.85;;;10.05;;
79480;SDS011;68944;48.262;14.208;2024-03-06T08:10:30;23.73;;;11.38;;
79480;SDS011;68944;48.262;14.208;2024-03-06T08:12:58;21.88;;;10.20;;
79480;SDS011;68944;48.262;14.208;2024-03-06T08:15:24;22.17;;;11.23;;
79480;SDS011;68944;48.262;14.208;2024-03-06T08:17:49;25.08;;;12.43;;
79480;SDS011;68944;48.262;14.208;2024-03-06T08:20:16;27.15;;;12.38;;
79480;SDS011;68944;48.262;14.208;2024-03-06T08:22:42;31.48;;;13.07;;
79480;SDS011;68944;48.262;14.208;2024-03-06T08:25:09;25.88;;;12.75;;
79480;SDS011;68944;48.262;14.208;2024-03-06T08:27:37;29.98;;;11.63;;
79480;SDS011;68944;48.262;14.208;2024-03-06T08:30:05;25.38;;;11.45;;
79480;SDS011;68944;48.262;14.208;2024-03-06T08:32:32;22.88;;;10.60;;
79480;SDS011;68944;48.262;14.208;2024-03-06T08:35:02;27.02;;;11.68;;
79480;SDS011;68944;48.262;14.208;2024-03-06T08:37:38;28.70;;;12.35;;
79480;SDS011;68944;48.262;14.208;2024-03-06T08:40:08;22.88;;;11.35;;
79480;SDS011;68944;48.262;14.208;2024-03-06T08:42:42;25.25;;;11.18;;
79480;SDS011;68944;48.262;14.208;2024-03-06T08:45:08;24.60;;;10.88;;
79480;SDS011;68944;48.262;14.208;2024-03-06T08:47:35;24.52;;;11.55;;
79480;SDS011;68944;48.262;14.208;2024-03-06T08:50:02;26.13;;;11.70;;
79480;SDS011;68944;48.262;14.208;2024-03-06T08:52:28;26.00;;;11.40;;
79480;SDS011;68944;48.262;14.208;2024-03-06T08:54:56;26.52;;;13.23;;
79480;SDS011;68944;48.262;14.208;2024-03-06T08:57:21;26.90;;;12.90;;
79480;SDS011;68944;48.262;14.208;2024-03-06T08:59:47;27.45;;;12.15;;
79480;SDS011;68944;48.262;14.208;2024-03-06T09:04:40;26.73;;;12.63;;
79480;SDS011;68944;48.262;14.208;2024-03-06T09:07:06;28.70;;;13.40;;
79480;SDS011;68944;48.262;14.208;2024-03-06T09:09:33;29.20;;;14.20;;
79480;SDS011;68944;48.262;14.208;2024-03-06T09:12:00;27.25;;;13.35;;
79480;SDS011;68944;48.262;14.208;2024-03-06T09:14:33;28.60;;;13.40;;
79480;SDS011;68944;48.262;14.208;2024-03-06T09:17:00;27.25;;;13.35;;
79480;SDS011;68944;48.262;14.208;2024-03-06T09:19:26;28.88;;;13.77;;
79480;SDS011;68944;48.262;14.208;2024-03-06T09:21:52;28.50;;;12.43;;
79480;SDS011;68944;48.262;14.208;2024-03-06T09:24:19;31.20;;;12.60;;
79480;SDS011;68944;48.262;14.208;2024-03-06T09:26:45;36.13;;;13.20;;
79480;SDS011;68944;48.262;14.208;2024-03-06T09:29:13;26.65;;;12.98;;
79480;SDS011;68944;48.262;14.208;2024-03-06T09:31:38;27.25;;;12.93;;
79480;SDS011;68944;48.262;14.208;2024-03-06T09:34:04;31.52;;;12.77;;
79480;SDS011;68944;48.262;14.208;2024-03-06T09:36:29;26.23;;;12.15;;
79480;SDS011;68944;48.262;14.208;2024-03-06T09:38:55;31.92;;;13.98;;
79480;SDS011;68944;48.262;14.208;2024-03-06T09:41:21;25.17;;;11.95;;
79480;SDS011;68944;48.262;14.208;2024-03-06T09:43:47;26.33;;;11.55;;
79480;SDS011;68944;48.262;14.208;2024-03-06T09:46:13;26.65;;;12.88;;
79480;SDS011;68944;48.262;14.208;2024-03-06T09:48:46;24.85;;;11.65;;
79480;SDS011;68944;48.262;14.208;2024-03-06T09:51:14;28.27;;;12.65;;
79480;SDS011;68944;48.262;14.208;2024-03-06T09:53:39;24.08;;;11.73;;
79480;SDS011;68944;48.262;14.208;2024-03-06T09:56:07;21.75;;;10.57;;
79480;SDS011;68944;48.262;14.208;2024-03-06T09:58:33;24.65;;;11.48;;
79480;SDS011;68944;48.262;14.208;2024-03-06T10:01:00;24.98;;;12.32;;
79480;SDS011;68944;48.262;14.208;2024-03-06T10:03:30;26.58;;;11.13;;
79480;SDS011;68944;48.262;14.208;2024-03-06T10:05:56;24.45;;;11.73;;
79480;SDS011;68944;48.262;14.208;2024-03-06T10:08:21;30.85;;;12.05;;
79480;SDS011;68944;48.262;14.208;2024-03-06T10:10:50;26.52;;;11.30;;
79480;SDS011;68944;48.262;14.208;2024-03-06T10:13:16;23.85;;;10.75;;
79480;SDS011;68944;48.262;14.208;2024-03-06T10:15:42;22.58;;;10.80;;
79480;SDS011;68944;48.262;14.208;2024-03-06T10:18:23;24.25;;;11.23;;
79480;SDS011;68944;48.262;14.208;2024-03-06T10:20:52;20.25;;;10.38;;
79480;SDS011;68944;48.262;14.208;2024-03-06T10:23:20;27.75;;;11.13;;
79480;SDS011;68944;48.262;14.208;2024-03-06T10:25:46;23.40;;;10.57;;
79480;SDS011;68944;48.262;14.208;2024-03-06T10:28:17;27.10;;;11.35;;
79480;SDS011;68944;48.262;14.208;2024-03-06T10:30:44;26.80;;;11.45;;
79480;SDS011;68944;48.262;14.208;2024-03-06T10:33:14;23.30;;;10.68;;
79480;SDS011;68944;48.262;14.208;2024-03-06T10:35:41;22.42;;;9.93;;
79480;SDS011;68944;48.262;14.208;2024-03-06T10:38:08;22.70;;;10.27;;
79480;SDS011;68944;48.262;14.208;2024-03-06T10:40:42;21.35;;;9.88;;
79480;SDS011;68944;48.262;14.208;2024-03-06T10:43:09;23.55;;;10.30;;
79480;SDS011;68944;48.262;14.208;2024-03-06T10:45:46;21.42;;;9.85;;
79480;SDS011;68944;48.262;14.208;2024-03-06T10:48:18;24.75;;;11.05;;
79480;SDS011;68944;48.262;14.208;2024-03-06T10:50:45;23.90;;;10.25;;
79480;SDS011;68944;48.262;14.208;2024-03-06T10:53:12;20.30;;;9.90;;
79480;SDS011;68944;48.262;14.208;2024-03-06T10:55:39;21.33;;;8.75;;
79480;SDS011;68944;48.262;14.208;2024-03-06T10:58:09;20.67;;;9.82;;
79480;SDS011;68944;48.262;14.208;2024-03-06T11:00:36;18.92;;;8.20;;
79480;SDS011;68944;48.262;14.208;2024-03-06T11:03:10;16.38;;;7.55;;
79480;SDS011;68944;48.262;14.208;2024-03-06T11:05:39;21.80;;;9.07;;
79480;SDS011;68944;48.262;14.208;2024-03-06T11:08:09;18.85;;;7.60;;
79480;SDS011;68944;48.262;14.208;2024-03-06T11:10:38;20.67;;;8.10;;
79480;SDS011;68944;48.262;14.208;2024-03-06T11:15:47;20.42;;;9.00;;
79480;SDS011;68944;48.262;14.208;2024-03-06T11:23:29;18.05;;;8.43;;
79480;SDS011;68944;48.262;14.208;2024-03-06T11:25:55;16.40;;;8.25;;
79480;SDS011;68944;48.262;14.208;2024-03-06T11:28:32;21.75;;;8.07;;
79480;SDS011;68944;48.262;14.208;2024-03-06T11:36:40;19.67;;;8.63;;
79480;SDS011;68944;48.262;14.208;2024-03-06T11:39:00;22.35;;;9.40;;
79480;SDS011;68944;48.262;14.208;2024-03-06T11:41:46;19.17;;;8.45;;
79480;SDS011;68944;48.262;14.208;2024-03-06T11:46:43;17.85;;;7.60;;
79480;SDS011;68944;48.262;14.208;2024-03-06T11:49:17;14.10;;;6.68;;
79480;SDS011;68944;48.262;14.208;2024-03-06T11:51:46;14.82;;;7.07;;
79480;SDS011;68944;48.262;14.208;2024-03-06T11:54:13;15.63;;;7.40;;
79480;SDS011;68944;48.262;14.208;2024-03-06T11:56:40;18.38;;;7.82;;
79480;SDS011;68944;48.262;14.208;2024-03-06T11:59:06;20.90;;;9.45;;
79480;SDS011;68944;48.262;14.208;2024-03-06T12:01:33;16.95;;;8.40;;
79480;SDS011;68944;48.262;14.208;2024-03-06T12:03:58;17.30;;;8.00;;
79480;SDS011;68944;48.262;14.208;2024-03-06T12:06:26;16.92;;;7.53;;
79480;SDS011;68944;48.262;14.208;2024-03-06T12:08:53;15.32;;;7.38;;
79480;SDS011;68944;48.262;14.208;2024-03-06T12:11:19;16.02;;;7.65;;
79480;SDS011;68944;48.262;14.208;2024-03-06T12:13:47;16.55;;;7.53;;
79480;SDS011;68944;48.262;14.208;2024-03-06T12:16:14;14.63;;;7.38;;
79480;SDS011;68944;48.262;14.208;2024-03-06T12:18:39;18.70;;;8.50;;
79480;SDS011;68944;48.262;14.208;2024-03-06T12:21:05;21.30;;;10.13;;
79480;SDS011;68944;48.262;14.208;2024-03-06T12:23:31;17.60;;;8.55;;
79480;SDS011;68944;48.262;14.208;2024-03-06T12:26:03;19.10;;;7.55;;
79480;SDS011;68944;48.262;14.208;2024-03-06T12:28:34;20.58;;;9.05;;
79480;SDS011;68944;48.262;14.208;2024-03-06T12:31:03;19.10;;;8.93;;
79480;SDS011;68944;48.262;14.208;2024-03-06T12:33:30;16.00;;;7.57;;
79480;SDS011;68944;48.262;14.208;2024-03-06T12:36:02;16.40;;;8.30;;
79480;SDS011;68944;48.262;14.208;2024-03-06T12:38:35;18.65;;;8.25;;
79480;SDS011;68944;48.262;14.208;2024-03-06T12:41:02;17.15;;;8.00;;
79480;SDS011;68944;48.262;14.208;2024-03-06T12:43:29;17.35;;;7.82;;
79480;SDS011;68944;48.262;14.208;2024-03-06T12:45:54;15.18;;;7.80;;
79480;SDS011;68944;48.262;14.208;2024-03-06T12:48:22;16.13;;;7.57;;
79480;SDS011;68944;48.262;14.208;2024-03-06T12:50:48;17.90;;;8.20;;
79480;SDS011;68944;48.262;14.208;2024-03-06T12:53:20;17.60;;;7.70;;
79480;SDS011;68944;48.262;14.208;2024-03-06T12:55:48;17.35;;;7.88;;
79480;SDS011;68944;48.262;14.208;2024-03-06T12:58:13;16.83;;;8.30;;
79480;SDS011;68944;48.262;14.208;2024-03-06T13:00:40;17.35;;;8.10;;
79480;SDS011;68944;48.262;14.208;2024-03-06T13:03:06;15.82;;;7.97;;
79480;SDS011;68944;48.262;14.208;2024-03-06T13:05:32;14.75;;;7.70;;
79480;SDS011;68944;48.262;14.208;2024-03-06T13:07:58;17.80;;;7.88;;
79480;SDS011;68944;48.262;14.208;2024-03-06T13:10:27;18.77;;;7.13;;
79480;SDS011;68944;48.262;14.208;2024-03-06T13:12:53;18.33;;;8.32;;
79480;SDS011;68944;48.262;14.208;2024-03-06T13:15:19;14.75;;;7.47;;
79480;SDS011;68944;48.262;14.208;2024-03-06T13:17:45;16.48;;;8.55;;
79480;SDS011;68944;48.262;14.208;2024-03-06T13:20:11;16.23;;;7.47;;
79480;SDS011;68944;48.262;14.208;2024-03-06T13:22:37;16.25;;;8.10;;
79480;SDS011;68944;48.262;14.208;2024-03-06T13:25:03;18.00;;;7.70;;
79480;SDS011;68944;48.262;14.208;2024-03-06T13:27:30;15.43;;;7.88;;
79480;SDS011;68944;48.262;14.208;2024-03-06T13:29:56;15.40;;;7.85;;
79480;SDS011;68944;48.262;14.208;2024-03-06T13:32:22;14.43;;;7.80;;
79480;SDS011;68944;48.262;14.208;2024-03-06T13:34:47;17.92;;;9.05;;
79480;SDS011;68944;48.262;14.208;2024-03-06T13:37:13;22.17;;;10.65;;
79480;SDS011;68944;48.262;14.208;2024-03-06T13:39:39;15.75;;;8.02;;
79480;SDS011;68944;48.262;14.208;2024-03-06T13:42:05;15.45;;;7.40;;
79480;SDS011;68944;48.262;14.208;2024-03-06T13:44:31;15.77;;;7.88;;
79480;SDS011;68944;48.262;14.208;2024-03-06T13:46:57;15.93;;;7.68;;
79480;SDS011;68944;48.262;14.208;2024-03-06T13:49:44;17.38;;;7.35;;
79480;SDS011;68944;48.262;14.208;2024-03-06T13:52:09;15.70;;;7.90;;
79480;SDS011;68944;48.262;14.208;2024-03-06T13:54:37;14.63;;;7.43;;
79480;SDS011;68944;48.262;14.208;2024-03-06T13:57:03;19.90;;;7.00;;
79480;SDS011;68944;48.262;14.208;2024-03-06T13:59:30;16.35;;;7.32;;
79480;SDS011;68944;48.262;14.208;2024-03-06T14:01:56;17.55;;;7.95;;
79480;SDS011;68944;48.262;14.208;2024-03-06T14:04:22;19.08;;;7.55;;
79480;SDS011;68944;48.262;14.208;2024-03-06T14:06:49;16.60;;;7.07;;
79480;SDS011;68944;48.262;14.208;2024-03-06T14:09:15;15.50;;;8.00;;
79480;SDS011;68944;48.262;14.208;2024-03-06T14:11:40;17.13;;;7.25;;
79480;SDS011;68944;48.262;14.208;2024-03-06T14:14:06;15.35;;;7.57;;
79480;SDS011;68944;48.262;14.208;2024-03-06T14:16:31;16.75;;;8.07;;
79480;SDS011;68944;48.262;14.208;2024-03-06T14:18:57;14.80;;;7.38;;
79480;SDS011;68944;48.262;14.208;2024-03-06T14:21:23;17.27;;;6.70;;
79480;SDS011;68944;48.262;14.208;2024-03-06T14:23:49;15.63;;;7.22;;
79480;SDS011;68944;48.262;14.208;2024-03-06T14:26:14;15.82;;;7.85;;
79480;SDS011;68944;48.262;14.208;2024-03-06T14:28:41;16.50;;;7.93;;
79480;SDS011;68944;48.262;14.208;2024-03-06T14:31:07;15.15;;;7.13;;
79480;SDS011;68944;48.262;14.208;2024-03-06T14:33:33;17.00;;;7.72;;